sensor_id;sensor_type;location;lat;lon;timestamp;P1;durP1;ratioP1;P2;durP2;ratioP2
25870;SDS011;13689;48.590;7.752;2024-02-04T00:01:32;5.22;;;3.35;;
25870;SDS011;13689;48.590;7.752;2024-02-04T00:03:58;4.95;;;3.90;;
25870;SDS011;13689;48.590;7.752;2024-02-04T00:06:23;6.35;;;4.00;;
25870;SDS011;13689;48.590;7.752;2024-02-04T00:08:49;5.82;;;3.53;;
25870;SDS011;13689;48.590;7.752;2024-02-04T00:11:14;6.97;;;3.90;;
25870;SDS011;13689;48.590;7.752;2024-02-04T00:13:40;5.50;;;3.72;;
25870;SDS011;13689;48.590;7.752;2024-02-04T00:16:05;5.65;;;3.83;;
25870;SDS011;13689;48.590;7.752;2024-02-04T00:18:31;8.43;;;3.97;;
25870;SDS011;13689;48.590;7.752;2024-02-04T00:20:57;5.18;;;3.72;;
25870;SDS011;13689;48.590;7.752;2024-02-04T00:23:23;5.13;;;3.75;;
25870;SDS011;13689;48.590;7.752;2024-02-04T00:25:48;7.80;;;4.20;;
25870;SDS011;13689;48.590;7.752;2024-02-04T00:28:14;5.72;;;3.53;;
25870;SDS011;13689;48.590;7.752;2024-02-04T00:30:40;6.10;;;3.78;;
25870;SDS011;13689;48.590;7.752;2024-02-04T00:33:05;7.38;;;4.18;;
25870;SDS011;13689;48.590;7.752;2024-02-04T00:35:31;6.28;;;3.97;;
25870;SDS011;13689;48.590;7.752;2024-02-04T00:37:56;8.20;;;3.92;;
25870;SDS011;13689;48.590;7.752;2024-02-04T00:40:22;7.82;;;4.35;;
25870;SDS011;13689;48.590;7.752;2024-02-04T00:42:48;5.70;;;3.92;;
25870;SDS011;13689;48.590;7.752;2024-02-04T00:45:13;6.32;;;4.18;;
25870;SDS011;13689;48.590;7.752;2024-02-04T00:47:39;6.88;;;4.30;;
25870;SDS011;13689;48.590;7.752;2024-02-04T00:50:05;8.55;;;3.88;;
25870;SDS011;13689;48.590;7.752;2024-02-04T00:52:31;6.70;;;3.80;;
25870;SDS011;13689;48.590;7.752;2024-02-04T00:54:57;7.85;;;3.83;;
25870;SDS011;13689;48.590;7.752;2024-02-04T00:57:22;5.18;;;3.50;;
25870;SDS011;13689;48.590;7.752;2024-02-04T00:59:48;5.53;;;3.85;;
25870;SDS011;13689;48.590;7.752;2024-02-04T01:02:15;5.40;;;3.37;;
25870;SDS011;13689;48.590;7.752;2024-02-04T01:04:41;6.60;;;3.65;;
25870;SDS011;13689;48.590;7.752;2024-02-04T01:07:06;5.35;;;3.85;;
25870;SDS011;13689;48.590;7.752;2024-02-04T01:09:32;6.70;;;3.90;;
25870;SDS011;13689;48.590;7.752;2024-02-04T01:11:57;4.22;;;3.35;;
25870;SDS011;13689;48.590;7.752;2024-02-04T01:14:23;5.90;;;3.80;;
25870;SDS011;13689;48.590;7.752;2024-02-04T01:16:49;7.05;;;3.83;;
25870;SDS011;13689;48.590;7.752;2024-02-04T01:19:14;6.25;;;4.10;;
25870;SDS011;13689;48.590;7.752;2024-02-04T01:21:40;6.20;;;4.32;;
25870;SDS011;13689;48.590;7.752;2024-02-04T01:24:06;7.03;;;3.90;;
25870;SDS011;13689;48.590;7.752;2024-02-04T01:26:31;5.82;;;4.18;;
25870;SDS011;13689;48.590;7.752;2024-02-04T01:28:57;5.72;;;3.90;;
25870;SDS011;13689;48.590;7.752;2024-02-04T01:31:22;7.18;;;3.92;;
25870;SDS011;13689;48.590;7.752;2024-02-04T01:33:48;6.43;;;3.83;;
25870;SDS011;13689;48.590;7.752;2024-02-04T01:36:14;5.20;;;4.00;;
25870;SDS011;13689;48.590;7.752;2024-02-04T01:38:39;7.38;;;3.58;;
25870;SDS011;13689;48.590;7.752;2024-02-04T01:41:05;5.10;;;4.00;;
25870;SDS011;13689;48.590;7.752;2024-02-04T01:43:30;7.05;;;3.70;;
25870;SDS011;13689;48.590;7.752;2024-02-04T01:45:56;4.43;;;3.40;;
25870;SDS011;13689;48.590;7.752;2024-02-04T01:48:22;5.10;;;3.55;;
25870;SDS011;13689;48.590;7.752;2024-02-04T01:50:48;5.18;;;3.72;;
25870;SDS011;13689;48.590;7.752;2024-02-04T01:53:16;5.25;;;3.38;;
25870;SDS011;13689;48.590;7.752;2024-02-04T01:58:09;7.82;;;3.78;;
25870;SDS011;13689;48.590;7.752;2024-02-04T02:00:35;5.45;;;3.72;;
25870;SDS011;13689;48.590;7.752;2024-02-04T02:03:01;7.07;;;3.88;;
25870;SDS011;13689;48.590;7.752;2024-02-04T02:05:30;6.07;;;3.80;;
25870;SDS011;13689;48.590;7.752;2024-02-04T02:07:56;5.45;;;3.40;;
25870;SDS011;13689;48.590;7.752;2024-02-04T02:10:21;5.63;;;3.80;;
25870;SDS011;13689;48.590;7.752;2024-02-04T02:12:54;5.18;;;3.13;;
25870;SDS011;13689;48.590;7.752;2024-02-04T02:15:27;5.13;;;3.67;;
25870;SDS011;13689;48.590;7.752;2024-02-04T02:18:01;5.53;;;4.10;;
25870;SDS011;13689;48.590;7.752;2024-02-04T02:23:36;9.52;;;3.90;;
25870;SDS011;13689;48.590;7.752;2024-02-04T02:26:13;6.13;;;3.90;;
25870;SDS011;13689;48.590;7.752;2024-02-04T02:28:40;7.32;;;4.30;;
25870;SDS011;13689;48.590;7.752;2024-02-04T02:31:06;6.75;;;3.78;;
25870;SDS011;13689;48.590;7.752;2024-02-04T02:33:31;6.80;;;3.88;;
25870;SDS011;13689;48.590;7.752;2024-02-04T02:35:57;8.43;;;4.32;;
25870;SDS011;13689;48.590;7.752;2024-02-04T02:38:33;5.38;;;3.50;;
25870;SDS011;13689;48.590;7.752;2024-02-04T02:41:07;7.38;;;3.97;;
25870;SDS011;13689;48.590;7.752;2024-02-04T02:43:34;6.80;;;3.97;;
25870;SDS011;13689;48.590;7.752;2024-02-04T02:46:01;6.57;;;3.83;;
25870;SDS011;13689;48.590;7.752;2024-02-04T02:48:27;9.50;;;4.00;;
25870;SDS011;13689;48.590;7.752;2024-02-04T02:50:53;6.55;;;3.65;;
25870;SDS011;13689;48.590;7.752;2024-02-04T02:53:19;7.93;;;4.22;;
25870;SDS011;13689;48.590;7.752;2024-02-04T02:55:45;7.93;;;3.65;;
25870;SDS011;13689;48.590;7.752;2024-02-04T02:58:12;7.60;;;3.90;;
25870;SDS011;13689;48.590;7.752;2024-02-04T03:00:39;4.35;;;3.38;;
25870;SDS011;13689;48.590;7.752;2024-02-04T03:03:04;6.55;;;3.72;;
25870;SDS011;13689;48.590;7.752;2024-02-04T03:05:30;5.53;;;3.55;;
25870;SDS011;13689;48.590;7.752;2024-02-04T03:07:56;5.95;;;3.22;;
25870;SDS011;13689;48.590;7.752;2024-02-04T03:10:22;7.80;;;4.07;;
25870;SDS011;13689;48.590;7.752;2024-02-04T03:12:47;11.25;;;3.50;;
25870;SDS011;13689;48.590;7.752;2024-02-04T03:15:13;4.47;;;3.55;;
25870;SDS011;13689;48.590;7.752;2024-02-04T03:17:38;5.13;;;3.42;;
25870;SDS011;13689;48.590;7.752;2024-02-04T03:20:04;5.60;;;4.05;;
25870;SDS011;13689;48.590;7.752;2024-02-04T03:22:30;5.85;;;3.53;;
25870;SDS011;13689;48.590;7.752;2024-02-04T03:24:56;5.93;;;3.47;;
25870;SDS011;13689;48.590;7.752;2024-02-04T03:27:21;6.65;;;3.70;;
25870;SDS011;13689;48.590;7.752;2024-02-04T03:29:47;4.68;;;3.05;;
25870;SDS011;13689;48.590;7.752;2024-02-04T03:32:12;6.30;;;3.88;;
25870;SDS011;13689;48.590;7.752;2024-02-04T03:34:40;4.97;;;3.97;;
25870;SDS011;13689;48.590;7.752;2024-02-04T03:37:06;5.82;;;3.80;;
25870;SDS011;13689;48.590;7.752;2024-02-04T03:39:32;5.35;;;3.60;;
25870;SDS011;13689;48.590;7.752;2024-02-04T03:41:57;6.22;;;3.83;;
25870;SDS011;13689;48.590;7.752;2024-02-04T03:44:23;5.85;;;3.80;;
25870;SDS011;13689;48.590;7.752;2024-02-04T03:46:49;4.82;;;3.15;;
25870;SDS011;13689;48.590;7.752;2024-02-04T03:49:15;5.32;;;3.67;;
25870;SDS011;13689;48.590;7.752;2024-02-04T03:51:41;6.05;;;3.30;;
25870;SDS011;13689;48.590;7.752;2024-02-04T03:54:07;6.72;;;3.53;;
25870;SDS011;13689;48.590;7.752;2024-02-04T03:56:32;5.90;;;3.60;;
25870;SDS011;13689;48.590;7.752;2024-02-04T03:58:58;7.03;;;3.55;;
25870;SDS011;13689;48.590;7.752;2024-02-04T04:01:23;5.40;;;3.40;;
25870;SDS011;13689;48.590;7.752;2024-02-04T04:03:49;4.90;;;3.33;;
25870;SDS011;13689;48.590;7.752;2024-02-04T04:06:15;5.55;;;3.67;;
25870;SDS011;13689;48.590;7.752;2024-02-04T04:08:40;4.88;;;3.50;;
25870;SDS011;13689;48.590;7.752;2024-02-04T04:11:07;5.55;;;3.30;;
25870;SDS011;13689;48.590;7.752;2024-02-04T04:13:34;5.93;;;3.65;;
25870;SDS011;13689;48.590;7.752;2024-02-04T04:16:00;3.92;;;3.10;;
25870;SDS011;13689;48.590;7.752;2024-02-04T04:18:26;5.82;;;3.83;;
25870;SDS011;13689;48.590;7.752;2024-02-04T04:20:52;6.25;;;3.58;;
25870;SDS011;13689;48.590;7.752;2024-02-04T04:23:18;5.30;;;3.38;;
25870;SDS011;13689;48.590;7.752;2024-02-04T04:25:43;7.68;;;4.28;;
25870;SDS011;13689;48.590;7.752;2024-02-04T04:28:09;7.38;;;4.07;;
25870;SDS011;13689;48.590;7.752;2024-02-04T04:30:34;9.38;;;4.50;;
25870;SDS011;13689;48.590;7.752;2024-02-04T04:33:00;7.70;;;4.00;;
25870;SDS011;13689;48.590;7.752;2024-02-04T04:35:25;5.97;;;3.63;;
25870;SDS011;13689;48.590;7.752;2024-02-04T04:37:51;7.25;;;3.50;;
25870;SDS011;13689;48.590;7.752;2024-02-04T04:40:17;6.78;;;3.35;;
25870;SDS011;13689;48.590;7.752;2024-02-04T04:42:43;7.05;;;3.75;;
25870;SDS011;13689;48.590;7.752;2024-02-04T04:45:10;6.38;;;3.88;;
25870;SDS011;13689;48.590;7.752;2024-02-04T04:47:36;6.85;;;3.85;;
25870;SDS011;13689;48.590;7.752;2024-02-04T04:50:02;6.90;;;3.05;;
25870;SDS011;13689;48.590;7.752;2024-02-04T04:52:29;5.90;;;3.40;;
25870;SDS011;13689;48.590;7.752;2024-02-04T04:54:55;6.13;;;3.67;;
25870;SDS011;13689;48.590;7.752;2024-02-04T04:57:21;5.35;;;3.45;;
25870;SDS011;13689;48.590;7.752;2024-02-04T04:59:47;4.40;;;2.80;;
25870;SDS011;13689;48.590;7.752;2024-02-04T05:02:12;5.05;;;2.85;;
25870;SDS011;13689;48.590;7.752;2024-02-04T05:04:38;6.00;;;3.20;;
25870;SDS011;13689;48.590;7.752;2024-02-04T05:07:07;4.28;;;2.70;;
25870;SDS011;13689;48.590;7.752;2024-02-04T05:09:32;5.03;;;2.85;;
25870;SDS011;13689;48.590;7.752;2024-02-04T05:11:58;4.78;;;3.42;;
25870;SDS011;13689;48.590;7.752;2024-02-04T05:14:23;4.50;;;2.67;;
25870;SDS011;13689;48.590;7.752;2024-02-04T05:16:49;5.00;;;2.42;;
25870;SDS011;13689;48.590;7.752;2024-02-04T05:19:15;3.63;;;2.55;;
25870;SDS011;13689;48.590;7.752;2024-02-04T05:21:40;3.13;;;2.38;;
25870;SDS011;13689;48.590;7.752;2024-02-04T05:24:06;4.13;;;2.40;;
25870;SDS011;13689;48.590;7.752;2024-02-04T05:26:31;4.70;;;2.70;;
25870;SDS011;13689;48.590;7.752;2024-02-04T05:28:57;3.72;;;2.78;;
25870;SDS011;13689;48.590;7.752;2024-02-04T05:31:23;2.90;;;2.42;;
25870;SDS011;13689;48.590;7.752;2024-02-04T05:33:48;4.70;;;2.47;;
25870;SDS011;13689;48.590;7.752;2024-02-04T05:38:43;3.15;;;2.38;;
25870;SDS011;13689;48.590;7.752;2024-02-04T05:41:10;1.98;;;1.83;;
25870;SDS011;13689;48.590;7.752;2024-02-04T05:43:35;3.92;;;2.42;;
25870;SDS011;13689;48.590;7.752;2024-02-04T05:46:01;3.47;;;2.10;;
25870;SDS011;13689;48.590;7.752;2024-02-04T05:48:26;4.18;;;2.35;;
25870;SDS011;13689;48.590;7.752;2024-02-04T05:50:52;2.30;;;2.03;;
25870;SDS011;13689;48.590;7.752;2024-02-04T05:53:17;2.55;;;1.98;;
25870;SDS011;13689;48.590;7.752;2024-02-04T05:55:43;2.20;;;2.00;;
25870;SDS011;13689;48.590;7.752;2024-02-04T05:58:09;3.65;;;2.15;;
25870;SDS011;13689;48.590;7.752;2024-02-04T06:00:35;2.85;;;2.10;;
25870;SDS011;13689;48.590;7.752;2024-02-04T06:03:01;3.25;;;2.08;;
25870;SDS011;13689;48.590;7.752;2024-02-04T06:05:26;5.30;;;2.42;;
25870;SDS011;13689;48.590;7.752;2024-02-04T06:07:52;1.98;;;1.60;;
25870;SDS011;13689;48.590;7.752;2024-02-04T06:10:18;2.40;;;1.95;;
25870;SDS011;13689;48.590;7.752;2024-02-04T06:12:43;3.60;;;2.30;;
25870;SDS011;13689;48.590;7.752;2024-02-04T06:15:13;2.88;;;1.85;;
25870;SDS011;13689;48.590;7.752;2024-02-04T06:17:39;2.05;;;1.88;;
25870;SDS011;13689;48.590;7.752;2024-02-04T06:20:05;2.72;;;1.65;;
25870;SDS011;13689;48.590;7.752;2024-02-04T06:22:31;3.78;;;1.77;;
25870;SDS011;13689;48.590;7.752;2024-02-04T06:24:58;7.00;;;2.20;;
25870;SDS011;13689;48.590;7.752;2024-02-04T06:27:24;2.03;;;1.42;;
25870;SDS011;13689;48.590;7.752;2024-02-04T06:29:49;1.50;;;1.40;;
25870;SDS011;13689;48.590;7.752;2024-02-04T06:32:16;2.83;;;1.70;;
25870;SDS011;13689;48.590;7.752;2024-02-04T06:34:45;2.60;;;1.80;;
25870;SDS011;13689;48.590;7.752;2024-02-04T06:37:11;3.13;;;1.80;;
25870;SDS011;13689;48.590;7.752;2024-02-04T06:39:36;2.40;;;1.73;;
25870;SDS011;13689;48.590;7.752;2024-02-04T06:42:02;1.98;;;1.77;;
25870;SDS011;13689;48.590;7.752;2024-02-04T06:44:28;2.10;;;1.80;;
25870;SDS011;13689;48.590;7.752;2024-02-04T06:46:54;2.05;;;1.40;;
25870;SDS011;13689;48.590;7.752;2024-02-04T06:49:19;1.95;;;1.45;;
25870;SDS011;13689;48.590;7.752;2024-02-04T06:51:45;8.20;;;1.88;;
25870;SDS011;13689;48.590;7.752;2024-02-04T06:54:12;2.33;;;1.70;;
25870;SDS011;13689;48.590;7.752;2024-02-04T06:56:37;2.05;;;1.45;;
25870;SDS011;13689;48.590;7.752;2024-02-04T06:59:03;2.15;;;1.52;;
25870;SDS011;13689;48.590;7.752;2024-02-04T07:01:28;2.20;;;1.52;;
25870;SDS011;13689;48.590;7.752;2024-02-04T07:03:54;1.83;;;1.52;;
25870;SDS011;13689;48.590;7.752;2024-02-04T07:06:20;2.30;;;1.60;;
25870;SDS011;13689;48.590;7.752;2024-02-04T07:08:45;1.95;;;1.42;;
25870;SDS011;13689;48.590;7.752;2024-02-04T07:11:11;1.42;;;1.33;;
25870;SDS011;13689;48.590;7.752;2024-02-04T07:13:36;1.50;;;1.40;;
25870;SDS011;13689;48.590;7.752;2024-02-04T07:16:02;2.03;;;1.40;;
25870;SDS011;13689;48.590;7.752;2024-02-04T07:18:28;1.35;;;1.20;;
25870;SDS011;13689;48.590;7.752;2024-02-04T07:20:53;4.80;;;1.70;;
25870;SDS011;13689;48.590;7.752;2024-02-04T07:23:19;1.92;;;1.25;;
25870;SDS011;13689;48.590;7.752;2024-02-04T07:25:45;4.07;;;1.27;;
25870;SDS011;13689;48.590;7.752;2024-02-04T07:28:10;4.60;;;1.25;;
25870;SDS011;13689;48.590;7.752;2024-02-04T07:30:36;3.05;;;1.30;;
25870;SDS011;13689;48.590;7.752;2024-02-04T07:33:02;2.05;;;0.95;;
25870;SDS011;13689;48.590;7.752;2024-02-04T07:35:27;2.47;;;1.50;;
25870;SDS011;13689;48.590;7.752;2024-02-04T07:37:53;1.45;;;1.10;;
25870;SDS011;13689;48.590;7.752;2024-02-04T07:40:18;1.73;;;1.25;;
25870;SDS011;13689;48.590;7.752;2024-02-04T07:42:44;1.92;;;1.20;;
25870;SDS011;13689;48.590;7.752;2024-02-04T07:45:09;1.17;;;1.08;;
25870;SDS011;13689;48.590;7.752;2024-02-04T07:47:35;2.65;;;1.33;;
25870;SDS011;13689;48.590;7.752;2024-02-04T07:50:01;4.10;;;1.17;;
25870;SDS011;13689;48.590;7.752;2024-02-04T07:52:27;1.63;;;1.30;;
25870;SDS011;13689;48.590;7.752;2024-02-04T07:54:53;1.40;;;1.30;;
25870;SDS011;13689;48.590;7.752;2024-02-04T07:57:19;2.60;;;1.30;;
25870;SDS011;13689;48.590;7.752;2024-02-04T07:59:45;2.22;;;1.13;;
25870;SDS011;13689;48.590;7.752;2024-02-04T08:02:11;1.35;;;1.10;;
25870;SDS011;13689;48.590;7.752;2024-02-04T08:04:39;1.50;;;1.40;;
25870;SDS011;13689;48.590;7.752;2024-02-04T08:07:06;3.10;;;1.30;;
25870;SDS011;13689;48.590;7.752;2024-02-04T08:09:32;1.55;;;1.40;;
25870;SDS011;13689;48.590;7.752;2024-02-04T08:11:57;1.27;;;1.15;;
25870;SDS011;13689;48.590;7.752;2024-02-04T08:14:23;1.27;;;0.98;;
25870;SDS011;13689;48.590;7.752;2024-02-04T08:16:49;1.88;;;1.23;;
25870;SDS011;13689;48.590;7.752;2024-02-04T08:19:15;1.98;;;1.20;;
25870;SDS011;13689;48.590;7.752;2024-02-04T08:21:42;1.67;;;1.17;;
25870;SDS011;13689;48.590;7.752;2024-02-04T08:24:07;1.55;;;1.13;;
25870;SDS011;13689;48.590;7.752;2024-02-04T08:26:34;1.23;;;1.13;;
25870;SDS011;13689;48.590;7.752;2024-02-04T08:28:59;1.35;;;1.25;;
25870;SDS011;13689;48.590;7.752;2024-02-04T08:31:25;1.70;;;1.17;;
25870;SDS011;13689;48.590;7.752;2024-02-04T08:33:51;1.10;;;1.00;;
25870;SDS011;13689;48.590;7.752;2024-02-04T08:36:18;1.33;;;0.88;;
25870;SDS011;13689;48.590;7.752;2024-02-04T08:38:43;1.00;;;0.90;;
25870;SDS011;13689;48.590;7.752;2024-02-04T08:41:09;1.63;;;1.20;;
25870;SDS011;13689;48.590;7.752;2024-02-04T08:43:35;2.15;;;1.20;;
25870;SDS011;13689;48.590;7.752;2024-02-04T08:46:01;1.20;;;1.10;;
25870;SDS011;13689;48.590;7.752;2024-02-04T08:48:27;1.08;;;0.98;;
25870;SDS011;13689;48.590;7.752;2024-02-04T08:50:52;3.03;;;1.10;;
25870;SDS011;13689;48.590;7.752;2024-02-04T08:53:19;1.50;;;1.00;;
25870;SDS011;13689;48.590;7.752;2024-02-04T08:55:46;1.23;;;1.00;;
25870;SDS011;13689;48.590;7.752;2024-02-04T08:58:11;1.15;;;0.95;;
25870;SDS011;13689;48.590;7.752;2024-02-04T09:00:37;2.05;;;1.00;;
25870;SDS011;13689;48.590;7.752;2024-02-04T09:03:03;2.13;;;1.20;;
25870;SDS011;13689;48.590;7.752;2024-02-04T09:05:28;1.63;;;1.30;;
25870;SDS011;13689;48.590;7.752;2024-02-04T09:07:54;1.52;;;1.40;;
25870;SDS011;13689;48.590;7.752;2024-02-04T09:10:20;1.50;;;1.20;;
25870;SDS011;13689;48.590;7.752;2024-02-04T09:12:46;2.78;;;1.10;;
25870;SDS011;13689;48.590;7.752;2024-02-04T09:15:12;1.20;;;1.10;;
25870;SDS011;13689;48.590;7.752;2024-02-04T09:17:38;2.58;;;1.40;;
25870;SDS011;13689;48.590;7.752;2024-02-04T09:20:03;2.78;;;1.00;;
25870;SDS011;13689;48.590;7.752;2024-02-04T09:22:30;1.13;;;0.95;;
25870;SDS011;13689;48.590;7.752;2024-02-04T09:24:55;2.28;;;1.33;;
25870;SDS011;13689;48.590;7.752;2024-02-04T09:27:21;1.48;;;0.90;;
25870;SDS011;13689;48.590;7.752;2024-02-04T09:29:47;1.17;;;0.80;;
25870;SDS011;13689;48.590;7.752;2024-02-04T09:32:12;0.95;;;0.90;;
25870;SDS011;13689;48.590;7.752;2024-02-04T09:34:38;2.47;;;0.85;;
25870;SDS011;13689;48.590;7.752;2024-02-04T09:37:04;1.05;;;1.00;;
25870;SDS011;13689;48.590;7.752;2024-02-04T09:39:32;2.03;;;1.08;;
25870;SDS011;13689;48.590;7.752;2024-02-04T09:41:57;1.67;;;1.58;;
25870;SDS011;13689;48.590;7.752;2024-02-04T09:44:24;2.38;;;0.80;;
25870;SDS011;13689;48.590;7.752;2024-02-04T09:46:50;2.13;;;0.50;;
25870;SDS011;13689;48.590;7.752;2024-02-04T09:49:17;1.27;;;0.63;;
25870;SDS011;13689;48.590;7.752;2024-02-04T09:51:43;3.60;;;0.80;;
25870;SDS011;13689;48.590;7.752;2024-02-04T09:54:09;0.40;;;0.40;;
25870;SDS011;13689;48.590;7.752;2024-02-04T09:56:37;1.55;;;0.50;;
25870;SDS011;13689;48.590;7.752;2024-02-04T10:01:29;2.05;;;1.10;;
25870;SDS011;13689;48.590;7.752;2024-02-04T10:03:57;1.95;;;1.42;;
25870;SDS011;13689;48.590;7.752;2024-02-04T10:06:23;1.05;;;1.05;;
25870;SDS011;13689;48.590;7.752;2024-02-04T10:08:49;2.97;;;1.10;;
25870;SDS011;13689;48.590;7.752;2024-02-04T10:11:15;0.85;;;0.85;;
25870;SDS011;13689;48.590;7.752;2024-02-04T10:13:45;3.55;;;0.85;;
25870;SDS011;13689;48.590;7.752;2024-02-04T10:16:12;1.10;;;0.65;;
25870;SDS011;13689;48.590;7.752;2024-02-04T10:18:42;0.85;;;0.63;;
25870;SDS011;13689;48.590;7.752;2024-02-04T10:21:18;1.02;;;0.68;;
25870;SDS011;13689;48.590;7.752;2024-02-04T10:23:48;1.10;;;0.52;;
25870;SDS011;13689;48.590;7.752;2024-02-04T10:26:14;2.03;;;0.82;;
25870;SDS011;13689;48.590;7.752;2024-02-04T10:28:40;1.05;;;0.50;;
25870;SDS011;13689;48.590;7.752;2024-02-04T10:31:09;0.47;;;0.47;;
25870;SDS011;13689;48.590;7.752;2024-02-04T10:33:35;1.35;;;0.63;;
25870;SDS011;13689;48.590;7.752;2024-02-04T10:36:01;1.20;;;0.50;;
25870;SDS011;13689;48.590;7.752;2024-02-04T10:38:28;0.40;;;0.40;;
25870;SDS011;13689;48.590;7.752;2024-02-04T10:40:54;0.50;;;0.50;;
25870;SDS011;13689;48.590;7.752;2024-02-04T10:43:20;1.00;;;0.50;;
25870;SDS011;13689;48.590;7.752;2024-02-04T10:45:47;0.63;;;0.52;;
25870;SDS011;13689;48.590;7.752;2024-02-04T10:48:14;1.50;;;0.68;;
25870;SDS011;13689;48.590;7.752;2024-02-04T10:50:44;0.40;;;0.40;;
25870;SDS011;13689;48.590;7.752;2024-02-04T10:53:13;1.95;;;0.70;;
25870;SDS011;13689;48.590;7.752;2024-02-04T10:55:40;0.57;;;0.57;;
25870;SDS011;13689;48.590;7.752;2024-02-04T10:58:07;0.68;;;0.50;;
25870;SDS011;13689;48.590;7.752;2024-02-04T11:00:36;0.60;;;0.50;;
25870;SDS011;13689;48.590;7.752;2024-02-04T11:03:02;1.05;;;0.50;;
25870;SDS011;13689;48.590;7.752;2024-02-04T11:05:29;0.40;;;0.40;;
25870;SDS011;13689;48.590;7.752;2024-02-04T11:07:56;0.60;;;0.60;;
25870;SDS011;13689;48.590;7.752;2024-02-04T11:10:22;1.65;;;0.82;;
25870;SDS011;13689;48.590;7.752;2024-02-04T11:12:52;1.02;;;0.60;;
25870;SDS011;13689;48.590;7.752;2024-02-04T11:15:20;3.78;;;0.80;;
25870;SDS011;13689;48.590;7.752;2024-02-04T11:26:02;3.15;;;0.80;;
25870;SDS011;13689;48.590;7.752;2024-02-04T11:28:29;1.27;;;0.63;;
25870;SDS011;13689;48.590;7.752;2024-02-04T11:30:56;1.25;;;0.82;;
25870;SDS011;13689;48.590;7.752;2024-02-04T11:33:22;0.88;;;0.70;;
25870;SDS011;13689;48.590;7.752;2024-02-04T11:36:12;1.33;;;1.10;;
25870;SDS011;13689;48.590;7.752;2024-02-04T11:38:37;2.15;;;0.93;;
25870;SDS011;13689;48.590;7.752;2024-02-04T11:41:03;2.15;;;0.80;;
25870;SDS011;13689;48.590;7.752;2024-02-04T11:43:32;3.92;;;0.93;;
25870;SDS011;13689;48.590;7.752;2024-02-04T11:45:58;1.63;;;0.60;;
25870;SDS011;13689;48.590;7.752;2024-02-04T11:48:32;1.03;;;0.90;;
25870;SDS011;13689;48.590;7.752;2024-02-04T11:50:59;0.45;;;0.45;;
25870;SDS011;13689;48.590;7.752;2024-02-04T11:53:25;0.65;;;0.65;;
25870;SDS011;13689;48.590;7.752;2024-02-04T11:56:00;0.90;;;0.73;;
25870;SDS011;13689;48.590;7.752;2024-02-04T11:58:27;0.65;;;0.60;;
25870;SDS011;13689;48.590;7.752;2024-02-04T12:03:32;2.30;;;0.90;;
25870;SDS011;13689;48.590;7.752;2024-02-04T12:05:58;1.33;;;0.70;;
25870;SDS011;13689;48.590;7.752;2024-02-04T12:08:26;3.28;;;0.90;;
25870;SDS011;13689;48.590;7.752;2024-02-04T12:10:52;1.00;;;0.80;;
25870;SDS011;13689;48.590;7.752;2024-02-04T12:13:19;1.17;;;0.75;;
25870;SDS011;13689;48.590;7.752;2024-02-04T12:15:47;3.38;;;0.90;;
25870;SDS011;13689;48.590;7.752;2024-02-04T12:18:13;2.13;;;1.08;;
25870;SDS011;13689;48.590;7.752;2024-02-04T12:20:41;1.27;;;0.70;;
25870;SDS011;13689;48.590;7.752;2024-02-04T12:23:07;1.00;;;0.90;;
25870;SDS011;13689;48.590;7.752;2024-02-04T12:25:33;0.43;;;0.43;;
25870;SDS011;13689;48.590;7.752;2024-02-04T12:28:00;1.13;;;0.68;;
25870;SDS011;13689;48.590;7.752;2024-02-04T12:30:30;0.75;;;0.60;;
25870;SDS011;13689;48.590;7.752;2024-02-04T12:33:00;0.90;;;0.50;;
25870;SDS011;13689;48.590;7.752;2024-02-04T12:35:29;1.63;;;0.40;;
25870;SDS011;13689;48.590;7.752;2024-02-04T12:37:55;0.65;;;0.40;;
25870;SDS011;13689;48.590;7.752;2024-02-04T12:40:26;0.30;;;0.30;;
25870;SDS011;13689;48.590;7.752;2024-02-04T12:42:59;1.67;;;0.40;;
25870;SDS011;13689;48.590;7.752;2024-02-04T12:45:29;1.20;;;0.47;;
25870;SDS011;13689;48.590;7.752;2024-02-04T12:47:56;0.65;;;0.50;;
25870;SDS011;13689;48.590;7.752;2024-02-04T12:50:23;1.58;;;0.40;;
25870;SDS011;13689;48.590;7.752;2024-02-04T12:53:01;0.68;;;0.68;;
25870;SDS011;13689;48.590;7.752;2024-02-04T12:55:27;0.40;;;0.35;;
25870;SDS011;13689;48.590;7.752;2024-02-04T12:58:06;1.75;;;0.50;;
25870;SDS011;13689;48.590;7.752;2024-02-04T13:00:33;0.80;;;0.40;;
25870;SDS011;13689;48.590;7.752;2024-02-04T13:02:59;4.85;;;1.50;;
25870;SDS011;13689;48.590;7.752;2024-02-04T13:05:26;1.30;;;0.77;;
25870;SDS011;13689;48.590;7.752;2024-02-04T13:07:53;1.23;;;0.68;;
25870;SDS011;13689;48.590;7.752;2024-02-04T13:10:30;1.60;;;0.95;;
25870;SDS011;13689;48.590;7.752;2024-02-04T13:12:59;1.33;;;0.90;;
25870;SDS011;13689;48.590;7.752;2024-02-04T13:15:29;2.40;;;0.90;;
25870;SDS011;13689;48.590;7.752;2024-02-04T13:17:55;1.42;;;1.10;;
25870;SDS011;13689;48.590;7.752;2024-02-04T13:20:21;0.73;;;0.73;;
25870;SDS011;13689;48.590;7.752;2024-02-04T13:22:47;1.45;;;1.10;;
25870;SDS011;13689;48.590;7.752;2024-02-04T13:25:13;1.15;;;0.90;;
25870;SDS011;13689;48.590;7.752;2024-02-04T13:27:39;1.85;;;1.00;;
25870;SDS011;13689;48.590;7.752;2024-02-04T13:30:05;1.20;;;0.90;;
25870;SDS011;13689;48.590;7.752;2024-02-04T13:32:36;0.63;;;0.55;;
25870;SDS011;13689;48.590;7.752;2024-02-04T13:35:06;1.95;;;0.98;;
25870;SDS011;13689;48.590;7.752;2024-02-04T13:37:34;0.75;;;0.63;;
25870;SDS011;13689;48.590;7.752;2024-02-04T13:40:06;1.17;;;0.70;;
25870;SDS011;13689;48.590;7.752;2024-02-04T13:42:33;0.95;;;0.50;;
25870;SDS011;13689;48.590;7.752;2024-02-04T13:45:00;1.10;;;0.52;;
25870;SDS011;13689;48.590;7.752;2024-02-04T13:47:26;1.10;;;0.60;;
25870;SDS011;13689;48.590;7.752;2024-02-04T13:49:52;0.60;;;0.60;;
25870;SDS011;13689;48.590;7.752;2024-02-04T13:52:18;0.75;;;0.60;;
25870;SDS011;13689;48.590;7.752;2024-02-04T13:54:43;1.25;;;0.90;;
25870;SDS011;13689;48.590;7.752;2024-02-04T13:57:09;0.93;;;0.57;;
25870;SDS011;13689;48.590;7.752;2024-02-04T13:59:36;0.73;;;0.60;;
25870;SDS011;13689;48.590;7.752;2024-02-04T14:02:01;1.17;;;0.80;;
25870;SDS011;13689;48.590;7.752;2024-02-04T14:04:27;2.60;;;0.77;;
25870;SDS011;13689;48.590;7.752;2024-02-04T14:06:54;0.55;;;0.55;;
25870;SDS011;13689;48.590;7.752;2024-02-04T14:09:20;2.05;;;0.60;;
25870;SDS011;13689;48.590;7.752;2024-02-04T14:11:46;1.52;;;0.57;;
25870;SDS011;13689;48.590;7.752;2024-02-04T14:14:12;1.55;;;0.60;;
25870;SDS011;13689;48.590;7.752;2024-02-04T14:16:37;1.20;;;0.60;;
25870;SDS011;13689;48.590;7.752;2024-02-04T14:19:04;1.27;;;0.50;;
25870;SDS011;13689;48.590;7.752;2024-02-04T14:21:29;4.60;;;0.80;;
25870;SDS011;13689;48.590;7.752;2024-02-04T14:23:55;0.90;;;0.77;;
25870;SDS011;13689;48.590;7.752;2024-02-04T14:26:21;0.88;;;0.77;;
25870;SDS011;13689;48.590;7.752;2024-02-04T14:28:47;3.55;;;1.00;;
25870;SDS011;13689;48.590;7.752;2024-02-04T14:31:13;1.67;;;0.90;;
25870;SDS011;13689;48.590;7.752;2024-02-04T14:33:40;1.08;;;0.80;;
25870;SDS011;13689;48.590;7.752;2024-02-04T14:36:06;1.23;;;1.00;;
25870;SDS011;13689;48.590;7.752;2024-02-04T14:38:32;0.85;;;0.80;;
25870;SDS011;13689;48.590;7.752;2024-02-04T14:41:02;1.00;;;0.90;;
25870;SDS011;13689;48.590;7.752;2024-02-04T14:43:28;0.80;;;0.75;;
25870;SDS011;13689;48.590;7.752;2024-02-04T14:45:54;1.50;;;0.90;;
25870;SDS011;13689;48.590;7.752;2024-02-04T14:48:19;1.75;;;0.77;;
25870;SDS011;13689;48.590;7.752;2024-02-04T14:50:45;1.30;;;0.77;;
25870;SDS011;13689;48.590;7.752;2024-02-04T14:53:11;1.25;;;0.77;;
25870;SDS011;13689;48.590;7.752;2024-02-04T14:55:37;2.28;;;0.80;;
25870;SDS011;13689;48.590;7.752;2024-02-04T14:58:02;1.42;;;0.80;;
25870;SDS011;13689;48.590;7.752;2024-02-04T15:00:28;5.13;;;0.95;;
25870;SDS011;13689;48.590;7.752;2024-02-04T15:02:54;0.95;;;0.73;;
25870;SDS011;13689;48.590;7.752;2024-02-04T15:05:19;2.08;;;1.00;;